sensor_id;sensor_type;location;lat;lon;timestamp;temperature;humidity
25949;DHT22;13961;51.178;4.448;2023-03-01T00:01:48;2.50;99.90
25949;DHT22;13961;51.178;4.448;2023-03-01T00:04:15;2.30;99.90
25949;DHT22;13961;51.178;4.448;2023-03-01T00:06:43;2.20;99.90
25949;DHT22;13961;51.178;4.448;2023-03-01T00:09:12;2.40;99.90
25949;DHT22;13961;51.178;4.448;2023-03-01T00:11:38;2.40;99.90
25949;DHT22;13961;51.178;4.448;2023-03-01T00:14:04;2.40;99.90
25949;DHT22;13961;51.178;4.448;2023-03-01T00:16:43;2.20;99.90
25949;DHT22;13961;51.178;4.448;2023-03-01T00:19:17;2.20;99.90
25949;DHT22;13961;51.178;4.448;2023-03-01T00:21:43;2.20;99.90
25949;DHT22;13961;51.178;4.448;2023-03-01T00:24:10;2.10;99.90
25949;DHT22;13961;51.178;4.448;2023-03-01T00:26:36;2.20;99.90
25949;DHT22;13961;51.178;4.448;2023-03-01T00:29:02;2.10;99.90
25949;DHT22;13961;51.178;4.448;2023-03-01T00:31:30;2.10;99.90
25949;DHT22;13961;51.178;4.448;2023-03-01T00:33:58;2.20;99.90
25949;DHT22;13961;51.178;4.448;2023-03-01T00:36:28;2.30;99.90
25949;DHT22;13961;51.178;4.448;2023-03-01T00:38:54;2.20;99.90
25949;DHT22;13961;51.178;4.448;2023-03-01T00:41:20;2.30;99.90
25949;DHT22;13961;51.178;4.448;2023-03-01T00:43:48;2.10;99.90
25949;DHT22;13961;51.178;4.448;2023-03-01T00:46:18;2.30;99.90
25949;DHT22;13961;51.178;4.448;2023-03-01T00:48:44;2.00;99.90
25949;DHT22;13961;51.178;4.448;2023-03-01T00:51:21;2.20;99.90
25949;DHT22;13961;51.178;4.448;2023-03-01T00:53:50;2.00;99.90
25949;DHT22;13961;51.178;4.448;2023-03-01T00:56:16;1.90;99.90
25949;DHT22;13961;51.178;4.448;2023-03-01T00:58:42;2.10;99.90
25949;DHT22;13961;51.178;4.448;2023-03-01T01:01:15;1.90;99.90
25949;DHT22;13961;51.178;4.448;2023-03-01T01:04:03;1.90;99.90
25949;DHT22;13961;51.178;4.448;2023-03-01T01:06:32;1.70;99.90
25949;DHT22;13961;51.178;4.448;2023-03-01T01:09:00;1.60;99.90
25949;DHT22;13961;51.178;4.448;2023-03-01T01:11:28;1.40;99.90
25949;DHT22;13961;51.178;4.448;2023-03-01T01:13:54;1.50;99.90
25949;DHT22;13961;51.178;4.448;2023-03-01T01:16:22;1.60;99.90
25949;DHT22;13961;51.178;4.448;2023-03-01T01:18:48;1.50;99.90
25949;DHT22;13961;51.178;4.448;2023-03-01T01:21:17;1.60;99.90
25949;DHT22;13961;51.178;4.448;2023-03-01T01:23:44;1.50;99.90
25949;DHT22;13961;51.178;4.448;2023-03-01T01:26:16;1.70;99.90
25949;DHT22;13961;51.178;4.448;2023-03-01T01:28:42;1.80;99.90
25949;DHT22;13961;51.178;4.448;2023-03-01T01:31:08;1.70;99.90
25949;DHT22;13961;51.178;4.448;2023-03-01T01:33:34;1.70;99.90
25949;DHT22;13961;51.178;4.448;2023-03-01T01:36:00;1.70;99.90
25949;DHT22;13961;51.178;4.448;2023-03-01T01:38:25;1.80;99.90
25949;DHT22;13961;51.178;4.448;2023-03-01T01:40:51;1.50;99.90
25949;DHT22;13961;51.178;4.448;2023-03-01T01:43:27;1.50;99.90
25949;DHT22;13961;51.178;4.448;2023-03-01T01:45:59;1.40;99.90
25949;DHT22;13961;51.178;4.448;2023-03-01T01:48:37;1.40;99.90
25949;DHT22;13961;51.178;4.448;2023-03-01T01:51:08;1.60;99.90
25949;DHT22;13961;51.178;4.448;2023-03-01T01:53:35;1.60;99.90
25949;DHT22;13961;51.178;4.448;2023-03-01T01:56:02;1.70;99.90
25949;DHT22;13961;51.178;4.448;2023-03-01T01:58:29;1.70;99.90
25949;DHT22;13961;51.178;4.448;2023-03-01T02:00:55;1.60;99.90
25949;DHT22;13961;51.178;4.448;2023-03-01T02:03:28;1.80;99.90
25949;DHT22;13961;51.178;4.448;2023-03-01T02:06:07;1.60;99.90
25949;DHT22;13961;51.178;4.448;2023-03-01T02:08:38;1.50;99.90
25949;DHT22;13961;51.178;4.448;2023-03-01T02:11:07;1.50;99.90
25949;DHT22;13961;51.178;4.448;2023-03-01T02:13:34;1.60;99.90
25949;DHT22;13961;51.178;4.448;2023-03-01T02:16:04;1.60;99.90
25949;DHT22;13961;51.178;4.448;2023-03-01T02:18:31;1.30;99.90
25949;DHT22;13961;51.178;4.448;2023-03-01T02:23:47;1.40;99.90
25949;DHT22;13961;51.178;4.448;2023-03-01T02:28:54;1.30;99.90
25949;DHT22;13961;51.178;4.448;2023-03-01T02:31:21;1.20;99.90
25949;DHT22;13961;51.178;4.448;2023-03-01T02:34:13;1.50;99.90
25949;DHT22;13961;51.178;4.448;2023-03-01T02:36:47;1.60;99.90
25949;DHT22;13961;51.178;4.448;2023-03-01T02:39:30;1.40;99.90
25949;DHT22;13961;51.178;4.448;2023-03-01T02:41:57;1.30;99.90
25949;DHT22;13961;51.178;4.448;2023-03-01T02:44:25;1.40;99.90
25949;DHT22;13961;51.178;4.448;2023-03-01T02:46:55;1.40;99.90
25949;DHT22;13961;51.178;4.448;2023-03-01T02:49:25;1.20;99.90
25949;DHT22;13961;51.178;4.448;2023-03-01T02:52:26;1.40;99.90
25949;DHT22;13961;51.178;4.448;2023-03-01T02:55:05;1.10;99.90
25949;DHT22;13961;51.178;4.448;2023-03-01T02:57:33;1.10;99.90
25949;DHT22;13961;51.178;4.448;2023-03-01T03:00:08;1.40;99.90
25949;DHT22;13961;51.178;4.448;2023-03-01T03:02:36;1.20;99.90
25949;DHT22;13961;51.178;4.448;2023-03-01T03:05:20;1.40;99.90
25949;DHT22;13961;51.178;4.448;2023-03-01T03:07:47;1.20;99.90
25949;DHT22;13961;51.178;4.448;2023-03-01T03:10:20;1.50;99.90
25949;DHT22;13961;51.178;4.448;2023-03-01T03:12:57;1.40;99.90
25949;DHT22;13961;51.178;4.448;2023-03-01T03:15:25;1.20;99.90
25949;DHT22;13961;51.178;4.448;2023-03-01T03:17:52;1.50;99.90
25949;DHT22;13961;51.178;4.448;2023-03-01T03:20:20;1.40;99.90
25949;DHT22;13961;51.178;4.448;2023-03-01T03:22:49;1.10;99.90
25949;DHT22;13961;51.178;4.448;2023-03-01T03:25:16;1.30;99.90
25949;DHT22;13961;51.178;4.448;2023-03-01T03:27:44;0.90;99.90
25949;DHT22;13961;51.178;4.448;2023-03-01T03:30:12;1.00;99.90
25949;DHT22;13961;51.178;4.448;2023-03-01T03:32:43;1.00;99.90
25949;DHT22;13961;51.178;4.448;2023-03-01T03:35:23;1.00;99.90
25949;DHT22;13961;51.178;4.448;2023-03-01T03:37:50;0.70;99.90
25949;DHT22;13961;51.178;4.448;2023-03-01T03:40:41;1.00;99.90
25949;DHT22;13961;51.178;4.448;2023-03-01T03:43:09;0.80;99.90
25949;DHT22;13961;51.178;4.448;2023-03-01T03:45:36;0.70;99.90
25949;DHT22;13961;51.178;4.448;2023-03-01T03:48:03;0.70;99.90
25949;DHT22;13961;51.178;4.448;2023-03-01T03:50:30;0.80;99.90
25949;DHT22;13961;51.178;4.448;2023-03-01T03:53:04;0.90;99.90
25949;DHT22;13961;51.178;4.448;2023-03-01T03:55:31;0.90;99.90
25949;DHT22;13961;51.178;4.448;2023-03-01T03:58:02;0.80;99.90
25949;DHT22;13961;51.178;4.448;2023-03-01T04:00:39;0.80;99.90
25949;DHT22;13961;51.178;4.448;2023-03-01T04:03:05;0.80;99.90
25949;DHT22;13961;51.178;4.448;2023-03-01T04:05:31;1.10;99.90
25949;DHT22;13961;51.178;4.448;2023-03-01T04:07:57;1.00;99.90
25949;DHT22;13961;51.178;4.448;2023-03-01T04:10:37;0.80;99.90
25949;DHT22;13961;51.178;4.448;2023-03-01T04:13:05;0.70;99.90
25949;DHT22;13961;51.178;4.448;2023-03-01T04:15:31;0.90;99.90
25949;DHT22;13961;51.178;4.448;2023-03-01T04:18:00;0.70;99.90
25949;DHT22;13961;51.178;4.448;2023-03-01T04:20:28;0.60;99.90
25949;DHT22;13961;51.178;4.448;2023-03-01T04:23:09;0.70;99.90
25949;DHT22;13961;51.178;4.448;2023-03-01T04:25:45;0.70;99.90
25949;DHT22;13961;51.178;4.448;2023-03-01T04:28:12;0.60;99.90
25949;DHT22;13961;51.178;4.448;2023-03-01T04:30:38;0.80;99.90
25949;DHT22;13961;51.178;4.448;2023-03-01T04:33:08;0.60;99.90
25949;DHT22;13961;51.178;4.448;2023-03-01T04:35:35;0.80;99.90
25949;DHT22;13961;51.178;4.448;2023-03-01T04:38:01;0.80;99.90
25949;DHT22;13961;51.178;4.448;2023-03-01T04:40:28;0.50;99.90
25949;DHT22;13961;51.178;4.448;2023-03-01T04:42:54;0.40;99.90
25949;DHT22;13961;51.178;4.448;2023-03-01T04:45:20;0.60;99.90
25949;DHT22;13961;51.178;4.448;2023-03-01T04:47:46;0.60;99.90
25949;DHT22;13961;51.178;4.448;2023-03-01T04:50:14;0.30;99.90
25949;DHT22;13961;51.178;4.448;2023-03-01T04:52:41;0.50;99.90
25949;DHT22;13961;51.178;4.448;2023-03-01T04:55:07;0.50;99.90
25949;DHT22;13961;51.178;4.448;2023-03-01T04:57:33;0.50;99.90
25949;DHT22;13961;51.178;4.448;2023-03-01T04:59:59;0.40;99.90
25949;DHT22;13961;51.178;4.448;2023-03-01T05:02:25;0.30;99.90
25949;DHT22;13961;51.178;4.448;2023-03-01T05:04:51;0.60;99.90
25949;DHT22;13961;51.178;4.448;2023-03-01T05:07:17;0.40;99.90
25949;DHT22;13961;51.178;4.448;2023-03-01T05:09:48;0.70;99.90
25949;DHT22;13961;51.178;4.448;2023-03-01T05:12:14;0.70;99.90
25949;DHT22;13961;51.178;4.448;2023-03-01T05:14:46;0.40;99.90
25949;DHT22;13961;51.178;4.448;2023-03-01T05:17:12;0.70;99.90
25949;DHT22;13961;51.178;4.448;2023-03-01T05:19:39;0.50;99.90
25949;DHT22;13961;51.178;4.448;2023-03-01T05:22:08;0.70;99.90
25949;DHT22;13961;51.178;4.448;2023-03-01T05:24:35;0.40;99.90
25949;DHT22;13961;51.178;4.448;2023-03-01T05:27:01;0.40;99.90
25949;DHT22;13961;51.178;4.448;2023-03-01T05:29:30;0.40;99.90
25949;DHT22;13961;51.178;4.448;2023-03-01T05:31:59;0.50;99.90
25949;DHT22;13961;51.178;4.448;2023-03-01T05:34:28;0.60;99.90
25949;DHT22;13961;51.178;4.448;2023-03-01T05:36:54;0.40;99.90
25949;DHT22;13961;51.178;4.448;2023-03-01T05:39:21;0.40;99.90
25949;DHT22;13961;51.178;4.448;2023-03-01T05:41:48;0.40;99.90
25949;DHT22;13961;51.178;4.448;2023-03-01T05:44:17;0.60;99.90
25949;DHT22;13961;51.178;4.448;2023-03-01T05:46:42;0.60;99.90
25949;DHT22;13961;51.178;4.448;2023-03-01T05:49:08;0.40;99.90
25949;DHT22;13961;51.178;4.448;2023-03-01T05:51:34;0.60;99.90
25949;DHT22;13961;51.178;4.448;2023-03-01T05:53:59;0.30;99.90
25949;DHT22;13961;51.178;4.448;2023-03-01T05:56:25;0.40;99.90
25949;DHT22;13961;51.178;4.448;2023-03-01T05:58:51;0.20;99.90
25949;DHT22;13961;51.178;4.448;2023-03-01T06:01:16;0.40;99.90
25949;DHT22;13961;51.178;4.448;2023-03-01T06:03:42;0.50;99.90
25949;DHT22;13961;51.178;4.448;2023-03-01T06:06:08;0.20;99.90
25949;DHT22;13961;51.178;4.448;2023-03-01T06:08:34;0.10;99.90
25949;DHT22;13961;51.178;4.448;2023-03-01T06:10:59;0.30;99.90
25949;DHT22;13961;51.178;4.448;2023-03-01T06:13:25;0.20;99.90
25949;DHT22;13961;51.178;4.448;2023-03-01T06:15:51;0.40;99.90
25949;DHT22;13961;51.178;4.448;2023-03-01T06:18:17;0.20;99.90
25949;DHT22;13961;51.178;4.448;2023-03-01T06:20:43;0.20;99.90
25949;DHT22;13961;51.178;4.448;2023-03-01T06:23:09;0.20;99.90
25949;DHT22;13961;51.178;4.448;2023-03-01T06:25:35;0.30;99.90
25949;DHT22;13961;51.178;4.448;2023-03-01T06:28:01;0.30;99.90
25949;DHT22;13961;51.178;4.448;2023-03-01T06:30:27;0.40;99.90
25949;DHT22;13961;51.178;4.448;2023-03-01T06:32:52;0.50;99.90
25949;DHT22;13961;51.178;4.448;2023-03-01T06:35:26;0.40;99.90
25949;DHT22;13961;51.178;4.448;2023-03-01T06:37:55;0.40;99.90
25949;DHT22;13961;51.178;4.448;2023-03-01T06:40:21;0.50;99.90
25949;DHT22;13961;51.178;4.448;2023-03-01T06:42:48;0.30;99.90
25949;DHT22;13961;51.178;4.448;2023-03-01T06:45:15;0.50;99.90
25949;DHT22;13961;51.178;4.448;2023-03-01T06:47:41;0.40;99.90
25949;DHT22;13961;51.178;4.448;2023-03-01T06:50:07;0.70;99.90
25949;DHT22;13961;51.178;4.448;2023-03-01T06:52:33;0.40;99.90
25949;DHT22;13961;51.178;4.448;2023-03-01T06:54:59;0.30;99.90
25949;DHT22;13961;51.178;4.448;2023-03-01T06:57:25;0.30;99.90
25949;DHT22;13961;51.178;4.448;2023-03-01T06:59:51;0.40;99.90
25949;DHT22;13961;51.178;4.448;2023-03-01T07:02:17;0.40;99.90
25949;DHT22;13961;51.178;4.448;2023-03-01T07:04:42;0.40;99.90
25949;DHT22;13961;51.178;4.448;2023-03-01T07:07:08;0.50;99.90
25949;DHT22;13961;51.178;4.448;2023-03-01T07:09:35;0.50;99.90
25949;DHT22;13961;51.178;4.448;2023-03-01T07:12:03;0.60;99.90
25949;DHT22;13961;51.178;4.448;2023-03-01T07:14:29;0.40;99.90
25949;DHT22;13961;51.178;4.448;2023-03-01T07:16:55;0.50;99.90
25949;DHT22;13961;51.178;4.448;2023-03-01T07:19:21;0.60;99.90
25949;DHT22;13961;51.178;4.448;2023-03-01T07:21:47;0.40;99.90
25949;DHT22;13961;51.178;4.448;2023-03-01T07:24:14;0.50;99.90
25949;DHT22;13961;51.178;4.448;2023-03-01T07:26:41;0.70;99.90
25949;DHT22;13961;51.178;4.448;2023-03-01T07:29:08;0.80;99.90
25949;DHT22;13961;51.178;4.448;2023-03-01T07:31:36;0.70;99.90
25949;DHT22;13961;51.178;4.448;2023-03-01T07:34:02;1.30;99.90
25949;DHT22;13961;51.178;4.448;2023-03-01T07:36:31;2.10;99.90
25949;DHT22;13961;51.178;4.448;2023-03-01T07:38:57;3.10;99.90
25949;DHT22;13961;51.178;4.448;2023-03-01T07:41:23;3.90;99.90
25949;DHT22;13961;51.178;4.448;2023-03-01T07:43:49;4.40;99.90
25949;DHT22;13961;51.178;4.448;2023-03-01T07:46:14;4.90;99.90
25949;DHT22;13961;51.178;4.448;2023-03-01T07:48:40;4.90;99.90
25949;DHT22;13961;51.178;4.448;2023-03-01T07:51:06;5.20;99.90
25949;DHT22;13961;51.178;4.448;2023-03-01T07:53:33;5.80;99.90
25949;DHT22;13961;51.178;4.448;2023-03-01T07:58:31;6.00;99.90
25949;DHT22;13961;51.178;4.448;2023-03-01T08:01:07;6.30;99.90
25949;DHT22;13961;51.178;4.448;2023-03-01T08:03:35;6.40;99.90
25949;DHT22;13961;51.178;4.448;2023-03-01T08:06:02;6.70;99.90
25949;DHT22;13961;51.178;4.448;2023-03-01T08:08:29;7.00;99.90
25949;DHT22;13961;51.178;4.448;2023-03-01T08:10:59;7.50;99.90
25949;DHT22;13961;51.178;4.448;2023-03-01T08:13:26;7.80;99.90
25949;DHT22;13961;51.178;4.448;2023-03-01T08:15:53;8.10;99.90
25949;DHT22;13961;51.178;4.448;2023-03-01T08:18:20;8.00;99.90
25949;DHT22;13961;51.178;4.448;2023-03-01T08:20:47;7.70;99.90
25949;DHT22;13961;51.178;4.448;2023-03-01T08:23:13;7.70;99.90
25949;DHT22;13961;51.178;4.448;2023-03-01T08:25:39;7.10;99.90
25949;DHT22;13961;51.178;4.448;2023-03-01T08:28:06;6.90;99.90
25949;DHT22;13961;51.178;4.448;2023-03-01T08:30:32;6.30;99.90
25949;DHT22;13961;51.178;4.448;2023-03-01T08:32:57;6.50;99.90
25949;DHT22;13961;51.178;4.448;2023-03-01T08:35:23;6.20;99.90
25949;DHT22;13961;51.178;4.448;2023-03-01T08:37:51;6.60;99.90
25949;DHT22;13961;51.178;4.448;2023-03-01T08:40:17;6.90;99.90
25949;DHT22;13961;51.178;4.448;2023-03-01T08:42:43;6.60;99.90
25949;DHT22;13961;51.178;4.448;2023-03-01T08:45:10;7.10;99.90
25949;DHT22;13961;51.178;4.448;2023-03-01T08:47:36;6.50;99.90
25949;DHT22;13961;51.178;4.448;2023-03-01T08:50:03;6.10;99.90
25949;DHT22;13961;51.178;4.448;2023-03-01T08:52:29;6.20;99.90
25949;DHT22;13961;51.178;4.448;2023-03-01T08:54:56;6.20;99.90
25949;DHT22;13961;51.178;4.448;2023-03-01T08:57:22;5.90;99.90
25949;DHT22;13961;51.178;4.448;2023-03-01T08:59:47;5.30;99.90
25949;DHT22;13961;51.178;4.448;2023-03-01T09:02:15;4.80;99.90
25949;DHT22;13961;51.178;4.448;2023-03-01T09:04:41;4.50;99.90
25949;DHT22;13961;51.178;4.448;2023-03-01T09:07:08;4.30;99.90
25949;DHT22;13961;51.178;4.448;2023-03-01T09:09:34;4.20;99.90
25949;DHT22;13961;51.178;4.448;2023-03-01T09:12:00;4.20;99.90
25949;DHT22;13961;51.178;4.448;2023-03-01T09:14:26;4.10;99.90
25949;DHT22;13961;51.178;4.448;2023-03-01T09:16:52;4.20;99.90
25949;DHT22;13961;51.178;4.448;2023-03-01T09:19:18;4.20;99.90
25949;DHT22;13961;51.178;4.448;2023-03-01T09:21:43;4.10;99.90
25949;DHT22;13961;51.178;4.448;2023-03-01T09:24:20;4.10;99.90
25949;DHT22;13961;51.178;4.448;2023-03-01T09:26:47;4.30;99.90
25949;DHT22;13961;51.178;4.448;2023-03-01T09:29:14;4.20;99.90
25949;DHT22;13961;51.178;4.448;2023-03-01T09:31:40;4.40;99.90
25949;DHT22;13961;51.178;4.448;2023-03-01T09:34:07;4.10;99.90
25949;DHT22;13961;51.178;4.448;2023-03-01T09:36:33;4.40;99.90
25949;DHT22;13961;51.178;4.448;2023-03-01T09:38:59;4.50;99.90
25949;DHT22;13961;51.178;4.448;2023-03-01T09:47:22;4.50;99.90
25949;DHT22;13961;51.178;4.448;2023-03-01T10:01:32;4.80;99.90
25949;DHT22;13961;51.178;4.448;2023-03-01T10:09:37;5.10;99.90
25949;DHT22;13961;51.178;4.448;2023-03-01T10:12:09;5.10;99.90
25949;DHT22;13961;51.178;4.448;2023-03-01T10:14:50;5.20;99.90
25949;DHT22;13961;51.178;4.448;2023-03-01T10:17:24;5.40;99.90
25949;DHT22;13961;51.178;4.448;2023-03-01T10:19:51;5.20;99.90
25949;DHT22;13961;51.178;4.448;2023-03-01T10:22:28;5.20;99.90
25949;DHT22;13961;51.178;4.448;2023-03-01T10:24:58;5.60;99.90
25949;DHT22;13961;51.178;4.448;2023-03-01T10:27:25;5.70;99.90
25949;DHT22;13961;51.178;4.448;2023-03-01T10:30:18;5.60;99.90
25949;DHT22;13961;51.178;4.448;2023-03-01T10:32:47;5.50;99.90
25949;DHT22;13961;51.178;4.448;2023-03-01T10:40:28;5.70;99.90
25949;DHT22;13961;51.178;4.448;2023-03-01T10:42:58;5.90;99.90
25949;DHT22;13961;51.178;4.448;2023-03-01T10:45:35;6.10;99.90
25949;DHT22;13961;51.178;4.448;2023-03-01T10:48:23;6.10;99.90
25949;DHT22;13961;51.178;4.448;2023-03-01T10:56:09;6.30;99.90
25949;DHT22;13961;51.178;4.448;2023-03-01T10:58:37;6.50;99.90
25949;DHT22;13961;51.178;4.448;2023-03-01T11:03:44;6.50;99.90
25949;DHT22;13961;51.178;4.448;2023-03-01T11:08:43;6.50;99.90
25949;DHT22;13961;51.178;4.448;2023-03-01T11:13:57;6.50;99.90
25949;DHT22;13961;51.178;4.448;2023-03-01T11:16:36;6.50;99.90
25949;DHT22;13961;51.178;4.448;2023-03-01T11:21:36;6.40;99.90
25949;DHT22;13961;51.178;4.448;2023-03-01T11:24:05;6.50;99.90
25949;DHT22;13961;51.178;4.448;2023-03-01T11:26:39;6.70;99.90
25949;DHT22;13961;51.178;4.448;2023-03-01T11:31:57;6.60;99.90
25949;DHT22;13961;51.178;4.448;2023-03-01T11:34:40;6.60;99.90
25949;DHT22;13961;51.178;4.448;2023-03-01T11:37:36;6.80;99.90
25949;DHT22;13961;51.178;4.448;2023-03-01T11:42:50;6.90;99.90
25949;DHT22;13961;51.178;4.448;2023-03-01T11:45:23;6.70;99.90
25949;DHT22;13961;51.178;4.448;2023-03-01T11:50:29;6.90;99.90
25949;DHT22;13961;51.178;4.448;2023-03-01T12:01:07;6.90;99.90
25949;DHT22;13961;51.178;4.448;2023-03-01T12:15:06;7.60;99.90
25949;DHT22;13961;51.178;4.448;2023-03-01T12:17:38;7.80;99.90
25949;DHT22;13961;51.178;4.448;2023-03-01T12:20:28;7.80;99.90
25949;DHT22;13961;51.178;4.448;2023-03-01T12:23:31;7.80;99.90
25949;DHT22;13961;51.178;4.448;2023-03-01T12:29:09;7.60;99.90
25949;DHT22;13961;51.178;4.448;2023-03-01T12:37:29;7.40;99.90
25949;DHT22;13961;51.178;4.448;2023-03-01T12:42:48;7.80;99.90
25949;DHT22;13961;51.178;4.448;2023-03-01T12:45:40;7.90;99.90
25949;DHT22;13961;51.178;4.448;2023-03-01T12:51:05;8.00;99.90
25949;DHT22;13961;51.178;4.448;2023-03-01T12:53:38;7.80;99.90
25949;DHT22;13961;51.178;4.448;2023-03-01T12:56:08;7.90;99.90
25949;DHT22;13961;51.178;4.448;2023-03-01T13:04:18;7.80;99.90
25949;DHT22;13961;51.178;4.448;2023-03-01T13:07:04;7.80;99.90
25949;DHT22;13961;51.178;4.448;2023-03-01T13:18:01;8.20;99.90
25949;DHT22;13961;51.178;4.448;2023-03-01T13:20:47;8.10;99.90
25949;DHT22;13961;51.178;4.448;2023-03-01T13:33:55;8.10;99.90
25949;DHT22;13961;51.178;4.448;2023-03-01T13:39:13;8.20;99.90
25949;DHT22;13961;51.178;4.448;2023-03-01T13:41:53;8.30;99.90
25949;DHT22;13961;51.178;4.448;2023-03-01T13:44:36;8.50;99.90
25949;DHT22;13961;51.178;4.448;2023-03-01T13:50:00;8.60;99.90
25949;DHT22;13961;51.178;4.448;2023-03-01T13:55:06;8.70;99.90
25949;DHT22;13961;51.178;4.448;2023-03-01T13:57:40;8.60;99.90
25949;DHT22;13961;51.178;4.448;2023-03-01T14:00:38;8.80;99.90
25949;DHT22;13961;51.178;4.448;2023-03-01T14:03:05;8.50;99.90
25949;DHT22;13961;51.178;4.448;2023-03-01T14:05:33;8.00;99.90
25949;DHT22;13961;51.178;4.448;2023-03-01T14:07:59;8.00;99.90
25949;DHT22;13961;51.178;4.448;2023-03-01T14:10:36;8.10;99.90
25949;DHT22;13961;51.178;4.448;2023-03-01T14:13:46;8.30;99.90
25949;DHT22;13961;51.178;4.448;2023-03-01T14:21:29;8.20;99.90
25949;DHT22;13961;51.178;4.448;2023-03-01T14:23:57;8.10;99.90
25949;DHT22;13961;51.178;4.448;2023-03-01T14:26:23;8.00;99.90
25949;DHT22;13961;51.178;4.448;2023-03-01T14:28:50;8.10;99.90
25949;DHT22;13961;51.178;4.448;2023-03-01T14:34:02;8.10;99.90
25949;DHT22;13961;51.178;4.448;2023-03-01T14:36:31;8.10;99.90
25949;DHT22;13961;51.178;4.448;2023-03-01T14:38:57;8.10;99.90
25949;DHT22;13961;51.178;4.448;2023-03-01T14:41:32;8.00;99.90
25949;DHT22;13961;51.178;4.448;2023-03-01T14:44:01;8.20;99.90
25949;DHT22;13961;51.178;4.448;2023-03-01T14:46:39;8.50;99.90
25949;DHT22;13961;51.178;4.448;2023-03-01T14:49:20;8.40;99.90
25949;DHT22;13961;51.178;4.448;2023-03-01T14:52:00;8.30;99.90
25949;DHT22;13961;51.178;4.448;2023-03-01T14:54:42;8.30;99.90
25949;DHT22;13961;51.178;4.448;2023-03-01T14:57:17;8.40;99.90
25949;DHT22;13961;51.178;4.448;2023-03-01T14:59:44;8.50;99.90
25949;DHT22;13961;51.178;4.448;2023-03-01T15:02:18;8.30;99.90
25949;DHT22;13961;51.178;4.448;2023-03-01T15:05:13;8.20;99.90
25949;DHT22;13961;51.178;4.448;2023-03-01T15:07:41;8.50;99.90
25949;DHT22;13961;51.178;4.448;2023-03-01T15:10:30;8.10;99.90
25949;DHT22;13961;51.178;4.448;2023-03-01T15:13:13;7.90;99.90
25949;DHT22;13961;51.178;4.448;2023-03-01T15:15:44;7.90;99.90
25949;DHT22;13961;51.178;4.448;2023-03-01T15:18:18;8.00;99.90
25949;DHT22;13961;51.178;4.448;2023-03-01T15:20:44;8.10;99.90
25949;DHT22;13961;51.178;4.448;2023-03-01T15:25:48;8.00;99.90
25949;DHT22;13961;51.178;4.448;2023-03-01T15:28:56;8.30;99.90
25949;DHT22;13961;51.178;4.448;2023-03-01T15:31:24;8.30;99.90
25949;DHT22;13961;51.178;4.448;2023-03-01T15:33:50;8.30;99.90
25949;DHT22;13961;51.178;4.448;2023-03-01T15:36:42;8.10;99.90
25949;DHT22;13961;51.178;4.448;2023-03-01T15:41:53;8.00;99.90
25949;DHT22;13961;51.178;4.448;2023-03-01T15:44:27;7.90;99.90
25949;DHT22;13961;51.178;4.448;2023-03-01T15:46:54;8.00;99.90
25949;DHT22;13961;51.178;4.448;2023-03-01T15:49:36;8.20;99.90
25949;DHT22;13961;51.178;4.448;2023-03-01T15:52:03;8.20;99.90
25949;DHT22;13961;51.178;4.448;2023-03-01T15:54:29;8.00;99.90
25949;DHT22;13961;51.178;4.448;2023-03-01T15:56:55;8.10;99.90
25949;DHT22;13961;51.178;4.448;2023-03-01T15:59:21;8.20;99.90
25949;DHT22;13961;51.178;4.448;2023-03-01T16:01:48;8.00;99.90
25949;DHT22;13961;51.178;4.448;2023-03-01T16:04:17;7.80;99.90
25949;DHT22;13961;51.178;4.448;2023-03-01T16:06:50;7.90;99.90
25949;DHT22;13961;51.178;4.448;2023-03-01T16:09:21;7.80;99.90
25949;DHT22;13961;51.178;4.448;2023-03-01T16:11:47;7.80;99.90
25949;DHT22;13961;51.178;4.448;2023-03-01T16:14:14;7.90;99.90
25949;DHT22;13961;51.178;4.448;2023-03-01T16:16:42;7.70;99.90
25949;DHT22;13961;51.178;4.448;2023-03-01T16:19:08;7.60;99.90
25949;DHT22;13961;51.178;4.448;2023-03-01T16:21:33;7.60;99.90
25949;DHT22;13961;51.178;4.448;2023-03-01T16:23:59;7.30;99.90
25949;DHT22;13961;51.178;4.448;2023-03-01T16:26:25;7.30;99.90
25949;DHT22;13961;51.178;4.448;2023-03-01T16:28:54;7.30;99.90
25949;DHT22;13961;51.178;4.448;2023-03-01T16:31:20;7.30;99.90
25949;DHT22;13961;51.178;4.448;2023-03-01T16:33:46;7.30;99.90
25949;DHT22;13961;51.178;4.448;2023-03-01T16:36:16;7.30;99.90
25949;DHT22;13961;51.178;4.448;2023-03-01T16:38:43;7.20;99.90
25949;DHT22;13961;51.178;4.448;2023-03-01T16:41:15;7.10;99.90
25949;DHT22;13961;51.178;4.448;2023-03-01T16:43:41;7.20;99.90
25949;DHT22;13961;51.178;4.448;2023-03-01T16:48:37;7.20;99.90
25949;DHT22;13961;51.178;4.448;2023-03-01T16:51:04;7.10;99.90
25949;DHT22;13961;51.178;4.448;2023-03-01T16:53:30;7.20;99.90
25949;DHT22;13961;51.178;4.448;2023-03-01T16:55:57;7.10;99.90
25949;DHT22;13961;51.178;4.448;2023-03-01T16:58:23;7.00;99.90
25949;DHT22;13961;51.178;4.448;2023-03-01T17:00:51;6.80;99.90
25949;DHT22;13961;51.178;4.448;2023-03-01T17:03:21;6.90;99.90
25949;DHT22;13961;51.178;4.448;2023-03-01T17:05:47;7.00;99.90
25949;DHT22;13961;51.178;4.448;2023-03-01T17:08:13;6.70;99.90
25949;DHT22;13961;51.178;4.448;2023-03-01T17:10:39;6.80;99.90
25949;DHT22;13961;51.178;4.448;2023-03-01T17:13:08;6.90;99.90
25949;DHT22;13961;51.178;4.448;2023-03-01T17:15:35;6.60;99.90
25949;DHT22;13961;51.178;4.448;2023-03-01T17:18:03;6.70;99.90
25949;DHT22;13961;51.178;4.448;2023-03-01T17:20:28;6.60;99.90
25949;DHT22;13961;51.178;4.448;2023-03-01T17:22:55;6.60;99.90
25949;DHT22;13961;51.178;4.448;2023-03-01T17:25:21;6.60;99.90
25949;DHT22;13961;51.178;4.448;2023-03-01T17:27:46;6.60;99.90
25949;DHT22;13961;51.178;4.448;2023-03-01T17:30:13;6.50;99.90
25949;DHT22;13961;51.178;4.448;2023-03-01T17:32:41;6.40;99.90
25949;DHT22;13961;51.178;4.448;2023-03-01T17:35:08;6.40;99.90
25949;DHT22;13961;51.178;4.448;2023-03-01T17:37:36;6.40;99.90
25949;DHT22;13961;51.178;4.448;2023-03-01T17:40:04;6.60;99.90
25949;DHT22;13961;51.178;4.448;2023-03-01T17:42:31;6.60;99.90
25949;DHT22;13961;51.178;4.448;2023-03-01T17:44:57;6.50;99.90
25949;DHT22;13961;51.178;4.448;2023-03-01T17:47:25;6.50;99.90
25949;DHT22;13961;51.178;4.448;2023-03-01T17:49:50;6.50;99.90
25949;DHT22;13961;51.178;4.448;2023-03-01T17:52:16;6.50;99.90
25949;DHT22;13961;51.178;4.448;2023-03-01T17:54:42;6.40;99.90
25949;DHT22;13961;51.178;4.448;2023-03-01T17:57:08;6.40;99.90
25949;DHT22;13961;51.178;4.448;2023-03-01T17:59:37;6.30;99.90
25949;DHT22;13961;51.178;4.448;2023-03-01T18:02:03;6.40;99.90
25949;DHT22;13961;51.178;4.448;2023-03-01T18:04:28;6.30;99.90
25949;DHT22;13961;51.178;4.448;2023-03-01T18:06:54;6.20;99.90
25949;DHT22;13961;51.178;4.448;2023-03-01T18:09:20;6.20;99.90
25949;DHT22;13961;51.178;4.448;2023-03-01T18:11:46;6.10;99.90
25949;DHT22;13961;51.178;4.448;2023-03-01T18:14:12;6.10;99.90
25949;DHT22;13961;51.178;4.448;2023-03-01T18:16:39;6.10;99.90
25949;DHT22;13961;51.178;4.448;2023-03-01T18:19:05;6.20;99.90
25949;DHT22;13961;51.178;4.448;2023-03-01T18:21:31;6.20;99.90
25949;DHT22;13961;51.178;4.448;2023-03-01T18:23:57;6.20;99.90